sensor_id;sensor_type;location;lat;lon;timestamp;P1;durP1;ratioP1;P2;durP2;ratioP2
6133;SDS011;3098;42.678;23.364;2022-10-16T00:00:06;5.70;;;2.78;;
6133;SDS011;3098;42.678;23.364;2022-10-16T00:02:43;7.22;;;2.92;;
6133;SDS011;3098;42.678;23.364;2022-10-16T00:05:32;12.77;;;3.10;;
6133;SDS011;3098;42.678;23.364;2022-10-16T00:08:09;6.65;;;3.67;;
6133;SDS011;3098;42.678;23.364;2022-10-16T00:10:51;6.80;;;3.78;;
6133;SDS011;3098;42.678;23.364;2022-10-16T00:13:18;6.05;;;3.45;;
6133;SDS011;3098;42.678;23.364;2022-10-16T00:15:47;8.40;;;3.83;;
6133;SDS011;3098;42.678;23.364;2022-10-16T00:18:14;8.50;;;3.60;;
6133;SDS011;3098;42.678;23.364;2022-10-16T00:20:41;6.65;;;3.20;;
6133;SDS011;3098;42.678;23.364;2022-10-16T00:23:08;7.05;;;3.03;;
6133;SDS011;3098;42.678;23.364;2022-10-16T00:25:35;8.90;;;4.28;;
6133;SDS011;3098;42.678;23.364;2022-10-16T00:28:02;10.35;;;3.40;;
6133;SDS011;3098;42.678;23.364;2022-10-16T00:30:30;7.07;;;3.85;;
6133;SDS011;3098;42.678;23.364;2022-10-16T00:32:59;5.40;;;3.25;;
6133;SDS011;3098;42.678;23.364;2022-10-16T00:35:26;9.02;;;3.90;;
6133;SDS011;3098;42.678;23.364;2022-10-16T00:37:54;6.32;;;3.08;;
6133;SDS011;3098;42.678;23.364;2022-10-16T00:40:21;6.65;;;3.28;;
6133;SDS011;3098;42.678;23.364;2022-10-16T00:42:48;6.47;;;3.95;;
6133;SDS011;3098;42.678;23.364;2022-10-16T00:45:15;5.28;;;2.83;;
6133;SDS011;3098;42.678;23.364;2022-10-16T00:47:43;7.57;;;3.60;;
6133;SDS011;3098;42.678;23.364;2022-10-16T00:50:16;14.68;;;3.45;;
6133;SDS011;3098;42.678;23.364;2022-10-16T00:52:48;8.05;;;3.53;;
6133;SDS011;3098;42.678;23.364;2022-10-16T00:55:18;15.27;;;3.75;;
6133;SDS011;3098;42.678;23.364;2022-10-16T00:57:45;4.82;;;3.35;;
6133;SDS011;3098;42.678;23.364;2022-10-16T01:00:14;8.18;;;3.83;;
6133;SDS011;3098;42.678;23.364;2022-10-16T01:02:51;5.40;;;3.45;;
6133;SDS011;3098;42.678;23.364;2022-10-16T01:05:20;6.10;;;3.30;;
6133;SDS011;3098;42.678;23.364;2022-10-16T01:07:51;7.47;;;3.45;;
6133;SDS011;3098;42.678;23.364;2022-10-16T01:10:27;11.95;;;3.90;;
6133;SDS011;3098;42.678;23.364;2022-10-16T01:13:02;8.80;;;3.20;;
6133;SDS011;3098;42.678;23.364;2022-10-16T01:15:33;9.10;;;4.20;;
6133;SDS011;3098;42.678;23.364;2022-10-16T01:18:05;6.45;;;3.38;;
6133;SDS011;3098;42.678;23.364;2022-10-16T01:20:39;8.65;;;3.67;;
6133;SDS011;3098;42.678;23.364;2022-10-16T01:23:15;6.82;;;3.42;;
6133;SDS011;3098;42.678;23.364;2022-10-16T01:25:57;8.35;;;3.70;;
6133;SDS011;3098;42.678;23.364;2022-10-16T01:28:39;8.25;;;3.67;;
6133;SDS011;3098;42.678;23.364;2022-10-16T01:31:11;8.63;;;3.70;;
6133;SDS011;3098;42.678;23.364;2022-10-16T01:33:43;7.40;;;3.97;;
6133;SDS011;3098;42.678;23.364;2022-10-16T01:36:14;10.23;;;4.43;;
6133;SDS011;3098;42.678;23.364;2022-10-16T01:38:44;7.07;;;3.40;;
6133;SDS011;3098;42.678;23.364;2022-10-16T01:41:15;3.70;;;2.63;;
6133;SDS011;3098;42.678;23.364;2022-10-16T01:43:48;8.80;;;3.97;;
6133;SDS011;3098;42.678;23.364;2022-10-16T01:46:20;6.40;;;3.60;;
6133;SDS011;3098;42.678;23.364;2022-10-16T01:48:50;8.73;;;4.05;;
6133;SDS011;3098;42.678;23.364;2022-10-16T01:51:18;8.65;;;3.72;;
6133;SDS011;3098;42.678;23.364;2022-10-16T01:53:48;5.45;;;3.05;;
6133;SDS011;3098;42.678;23.364;2022-10-16T01:56:18;3.72;;;2.78;;
6133;SDS011;3098;42.678;23.364;2022-10-16T01:58:50;7.80;;;3.72;;
6133;SDS011;3098;42.678;23.364;2022-10-16T02:01:21;9.45;;;4.00;;
6133;SDS011;3098;42.678;23.364;2022-10-16T02:03:51;8.55;;;3.00;;
6133;SDS011;3098;42.678;23.364;2022-10-16T02:06:22;10.88;;;4.60;;
6133;SDS011;3098;42.678;23.364;2022-10-16T02:08:50;7.85;;;3.22;;
6133;SDS011;3098;42.678;23.364;2022-10-16T02:11:18;6.53;;;3.15;;
6133;SDS011;3098;42.678;23.364;2022-10-16T02:13:45;3.08;;;2.33;;
6133;SDS011;3098;42.678;23.364;2022-10-16T02:16:18;5.47;;;3.35;;
6133;SDS011;3098;42.678;23.364;2022-10-16T02:18:46;5.78;;;2.72;;
6133;SDS011;3098;42.678;23.364;2022-10-16T02:21:13;6.45;;;3.33;;
6133;SDS011;3098;42.678;23.364;2022-10-16T02:23:45;5.13;;;3.15;;
6133;SDS011;3098;42.678;23.364;2022-10-16T02:26:19;5.07;;;2.75;;
6133;SDS011;3098;42.678;23.364;2022-10-16T02:28:55;4.30;;;2.97;;
6133;SDS011;3098;42.678;23.364;2022-10-16T02:31:31;7.75;;;3.40;;
6133;SDS011;3098;42.678;23.364;2022-10-16T02:34:02;12.18;;;4.78;;
6133;SDS011;3098;42.678;23.364;2022-10-16T02:36:32;16.75;;;4.60;;
6133;SDS011;3098;42.678;23.364;2022-10-16T02:39:01;14.05;;;4.07;;
6133;SDS011;3098;42.678;23.364;2022-10-16T02:41:30;5.82;;;3.85;;
6133;SDS011;3098;42.678;23.364;2022-10-16T02:43:58;9.00;;;4.18;;
6133;SDS011;3098;42.678;23.364;2022-10-16T02:46:25;8.80;;;3.63;;
6133;SDS011;3098;42.678;23.364;2022-10-16T02:48:53;14.13;;;4.18;;
6133;SDS011;3098;42.678;23.364;2022-10-16T02:51:21;11.57;;;3.97;;
6133;SDS011;3098;42.678;23.364;2022-10-16T02:53:48;6.20;;;3.47;;
6133;SDS011;3098;42.678;23.364;2022-10-16T02:56:15;5.93;;;3.28;;
6133;SDS011;3098;42.678;23.364;2022-10-16T02:58:43;5.43;;;3.33;;
6133;SDS011;3098;42.678;23.364;2022-10-16T03:01:10;6.15;;;3.45;;
6133;SDS011;3098;42.678;23.364;2022-10-16T03:03:38;10.50;;;3.53;;
6133;SDS011;3098;42.678;23.364;2022-10-16T03:06:06;5.93;;;3.35;;
6133;SDS011;3098;42.678;23.364;2022-10-16T03:08:33;8.20;;;3.47;;
6133;SDS011;3098;42.678;23.364;2022-10-16T03:11:00;6.40;;;3.57;;
6133;SDS011;3098;42.678;23.364;2022-10-16T03:13:27;4.22;;;2.60;;
6133;SDS011;3098;42.678;23.364;2022-10-16T03:15:54;6.15;;;1.75;;
6133;SDS011;3098;42.678;23.364;2022-10-16T03:18:21;3.47;;;2.33;;
6133;SDS011;3098;42.678;23.364;2022-10-16T03:20:48;4.15;;;2.92;;
6133;SDS011;3098;42.678;23.364;2022-10-16T03:23:17;6.03;;;2.92;;
6133;SDS011;3098;42.678;23.364;2022-10-16T03:25:44;5.57;;;3.55;;
6133;SDS011;3098;42.678;23.364;2022-10-16T03:28:11;4.80;;;2.22;;
6133;SDS011;3098;42.678;23.364;2022-10-16T03:30:38;8.18;;;2.60;;
6133;SDS011;3098;42.678;23.364;2022-10-16T03:33:06;5.55;;;2.80;;
6133;SDS011;3098;42.678;23.364;2022-10-16T03:35:33;10.18;;;2.55;;
6133;SDS011;3098;42.678;23.364;2022-10-16T03:38:00;3.75;;;2.17;;
6133;SDS011;3098;42.678;23.364;2022-10-16T03:40:29;6.13;;;3.00;;
6133;SDS011;3098;42.678;23.364;2022-10-16T03:42:57;7.20;;;2.35;;
6133;SDS011;3098;42.678;23.364;2022-10-16T03:45:24;3.90;;;2.65;;
6133;SDS011;3098;42.678;23.364;2022-10-16T03:47:52;4.47;;;2.40;;
6133;SDS011;3098;42.678;23.364;2022-10-16T03:50:19;5.82;;;2.67;;
6133;SDS011;3098;42.678;23.364;2022-10-16T03:52:46;2.67;;;1.83;;
6133;SDS011;3098;42.678;23.364;2022-10-16T03:55:13;6.30;;;2.13;;
6133;SDS011;3098;42.678;23.364;2022-10-16T03:57:42;4.87;;;2.33;;
6133;SDS011;3098;42.678;23.364;2022-10-16T04:00:10;5.10;;;2.90;;
6133;SDS011;3098;42.678;23.364;2022-10-16T04:02:38;2.53;;;2.33;;
6133;SDS011;3098;42.678;23.364;2022-10-16T04:05:06;5.30;;;3.25;;
6133;SDS011;3098;42.678;23.364;2022-10-16T04:07:34;7.60;;;3.60;;
6133;SDS011;3098;42.678;23.364;2022-10-16T04:10:01;6.22;;;3.03;;
6133;SDS011;3098;42.678;23.364;2022-10-16T04:12:29;3.73;;;2.73;;
6133;SDS011;3098;42.678;23.364;2022-10-16T04:14:58;2.70;;;1.90;;
6133;SDS011;3098;42.678;23.364;2022-10-16T04:17:25;7.53;;;2.38;;
6133;SDS011;3098;42.678;23.364;2022-10-16T04:19:53;5.37;;;2.70;;
6133;SDS011;3098;42.678;23.364;2022-10-16T04:22:20;7.93;;;2.30;;
6133;SDS011;3098;42.678;23.364;2022-10-16T04:24:47;4.28;;;2.63;;
6133;SDS011;3098;42.678;23.364;2022-10-16T04:27:14;9.63;;;3.07;;
6133;SDS011;3098;42.678;23.364;2022-10-16T04:29:41;6.57;;;3.40;;
6133;SDS011;3098;42.678;23.364;2022-10-16T04:32:10;3.95;;;2.17;;
6133;SDS011;3098;42.678;23.364;2022-10-16T04:34:38;6.17;;;2.90;;
6133;SDS011;3098;42.678;23.364;2022-10-16T04:37:06;5.93;;;3.25;;
6133;SDS011;3098;42.678;23.364;2022-10-16T04:39:33;5.32;;;2.95;;
6133;SDS011;3098;42.678;23.364;2022-10-16T04:42:01;7.27;;;3.87;;
6133;SDS011;3098;42.678;23.364;2022-10-16T04:44:28;4.15;;;2.42;;
6133;SDS011;3098;42.678;23.364;2022-10-16T04:46:56;8.20;;;3.78;;
6133;SDS011;3098;42.678;23.364;2022-10-16T04:49:25;5.20;;;3.10;;
6133;SDS011;3098;42.678;23.364;2022-10-16T04:51:52;10.50;;;4.00;;
6133;SDS011;3098;42.678;23.364;2022-10-16T04:54:19;7.68;;;3.72;;
6133;SDS011;3098;42.678;23.364;2022-10-16T04:56:47;7.93;;;3.53;;
6133;SDS011;3098;42.678;23.364;2022-10-16T04:59:17;5.65;;;3.15;;
6133;SDS011;3098;42.678;23.364;2022-10-16T05:01:45;5.63;;;2.70;;
6133;SDS011;3098;42.678;23.364;2022-10-16T05:04:13;7.95;;;3.33;;
6133;SDS011;3098;42.678;23.364;2022-10-16T05:06:43;5.78;;;3.30;;
6133;SDS011;3098;42.678;23.364;2022-10-16T05:09:10;6.70;;;3.60;;
6133;SDS011;3098;42.678;23.364;2022-10-16T05:11:38;8.63;;;3.30;;
6133;SDS011;3098;42.678;23.364;2022-10-16T05:14:06;13.50;;;5.97;;
6133;SDS011;3098;42.678;23.364;2022-10-16T05:16:33;15.50;;;6.75;;
6133;SDS011;3098;42.678;23.364;2022-10-16T05:19:00;12.55;;;7.32;;
6133;SDS011;3098;42.678;23.364;2022-10-16T05:21:28;10.57;;;6.82;;
6133;SDS011;3098;42.678;23.364;2022-10-16T05:23:57;15.80;;;7.28;;
6133;SDS011;3098;42.678;23.364;2022-10-16T05:26:24;11.80;;;6.72;;
6133;SDS011;3098;42.678;23.364;2022-10-16T05:28:51;19.35;;;6.30;;
6133;SDS011;3098;42.678;23.364;2022-10-16T05:31:18;11.20;;;5.30;;
6133;SDS011;3098;42.678;23.364;2022-10-16T05:33:45;9.35;;;5.10;;
6133;SDS011;3098;42.678;23.364;2022-10-16T05:36:12;5.65;;;3.72;;
6133;SDS011;3098;42.678;23.364;2022-10-16T05:38:39;8.27;;;4.38;;
6133;SDS011;3098;42.678;23.364;2022-10-16T05:41:09;10.50;;;4.40;;
6133;SDS011;3098;42.678;23.364;2022-10-16T05:43:36;9.43;;;4.07;;
6133;SDS011;3098;42.678;23.364;2022-10-16T05:46:03;8.25;;;3.95;;
6133;SDS011;3098;42.678;23.364;2022-10-16T05:48:32;9.93;;;4.38;;
6133;SDS011;3098;42.678;23.364;2022-10-16T05:51:00;7.47;;;4.07;;
6133;SDS011;3098;42.678;23.364;2022-10-16T05:53:29;9.82;;;4.45;;
6133;SDS011;3098;42.678;23.364;2022-10-16T05:55:57;10.50;;;4.65;;
6133;SDS011;3098;42.678;23.364;2022-10-16T05:58:30;5.88;;;3.20;;
6133;SDS011;3098;42.678;23.364;2022-10-16T06:00:59;7.18;;;3.97;;
6133;SDS011;3098;42.678;23.364;2022-10-16T06:03:27;6.72;;;3.92;;
6133;SDS011;3098;42.678;23.364;2022-10-16T06:05:55;6.10;;;3.55;;
6133;SDS011;3098;42.678;23.364;2022-10-16T06:08:22;11.00;;;3.92;;
6133;SDS011;3098;42.678;23.364;2022-10-16T06:10:59;6.63;;;3.42;;
6133;SDS011;3098;42.678;23.364;2022-10-16T06:13:29;6.15;;;3.65;;
6133;SDS011;3098;42.678;23.364;2022-10-16T06:15:57;6.65;;;3.80;;
6133;SDS011;3098;42.678;23.364;2022-10-16T06:18:25;8.95;;;3.95;;
6133;SDS011;3098;42.678;23.364;2022-10-16T06:20:52;11.43;;;4.20;;
6133;SDS011;3098;42.678;23.364;2022-10-16T06:23:19;14.13;;;4.80;;
6133;SDS011;3098;42.678;23.364;2022-10-16T06:25:46;7.38;;;3.95;;
6133;SDS011;3098;42.678;23.364;2022-10-16T06:28:13;12.07;;;5.75;;
6133;SDS011;3098;42.678;23.364;2022-10-16T06:30:43;9.40;;;5.45;;
6133;SDS011;3098;42.678;23.364;2022-10-16T06:33:10;12.13;;;5.22;;
6133;SDS011;3098;42.678;23.364;2022-10-16T06:35:37;15.13;;;6.47;;
6133;SDS011;3098;42.678;23.364;2022-10-16T06:38:05;11.80;;;6.35;;
6133;SDS011;3098;42.678;23.364;2022-10-16T06:40:32;11.18;;;5.88;;
6133;SDS011;3098;42.678;23.364;2022-10-16T06:42:59;12.13;;;5.45;;
6133;SDS011;3098;42.678;23.364;2022-10-16T06:45:26;9.25;;;4.72;;
6133;SDS011;3098;42.678;23.364;2022-10-16T06:47:55;7.97;;;4.22;;
6133;SDS011;3098;42.678;23.364;2022-10-16T06:50:23;11.02;;;4.00;;
6133;SDS011;3098;42.678;23.364;2022-10-16T06:52:50;9.43;;;4.22;;
6133;SDS011;3098;42.678;23.364;2022-10-16T06:55:17;9.35;;;3.70;;
6133;SDS011;3098;42.678;23.364;2022-10-16T06:57:46;10.43;;;4.07;;
6133;SDS011;3098;42.678;23.364;2022-10-16T07:00:13;6.30;;;3.65;;
6133;SDS011;3098;42.678;23.364;2022-10-16T07:02:43;7.35;;;3.90;;
6133;SDS011;3098;42.678;23.364;2022-10-16T07:05:13;6.88;;;3.90;;
6133;SDS011;3098;42.678;23.364;2022-10-16T07:07:41;7.38;;;3.78;;
6133;SDS011;3098;42.678;23.364;2022-10-16T07:10:08;6.97;;;3.95;;
6133;SDS011;3098;42.678;23.364;2022-10-16T07:12:36;9.70;;;4.03;;
6133;SDS011;3098;42.678;23.364;2022-10-16T07:15:04;5.93;;;3.08;;
6133;SDS011;3098;42.678;23.364;2022-10-16T07:17:35;6.28;;;4.25;;
6133;SDS011;3098;42.678;23.364;2022-10-16T07:20:02;9.73;;;4.80;;
6133;SDS011;3098;42.678;23.364;2022-10-16T07:22:31;5.60;;;3.63;;
6133;SDS011;3098;42.678;23.364;2022-10-16T07:24:58;7.13;;;3.72;;
6133;SDS011;3098;42.678;23.364;2022-10-16T07:27:25;7.15;;;4.15;;
6133;SDS011;3098;42.678;23.364;2022-10-16T07:29:53;8.85;;;3.75;;
6133;SDS011;3098;42.678;23.364;2022-10-16T07:32:20;6.53;;;3.55;;
6133;SDS011;3098;42.678;23.364;2022-10-16T07:34:47;10.13;;;3.97;;
6133;SDS011;3098;42.678;23.364;2022-10-16T07:37:16;5.78;;;3.30;;
6133;SDS011;3098;42.678;23.364;2022-10-16T07:39:45;12.98;;;4.38;;
6133;SDS011;3098;42.678;23.364;2022-10-16T07:42:12;7.75;;;3.80;;
6133;SDS011;3098;42.678;23.364;2022-10-16T07:44:41;8.13;;;3.70;;
6133;SDS011;3098;42.678;23.364;2022-10-16T07:47:09;4.47;;;3.35;;
6133;SDS011;3098;42.678;23.364;2022-10-16T07:49:36;5.30;;;2.97;;
6133;SDS011;3098;42.678;23.364;2022-10-16T07:52:04;8.90;;;3.55;;
6133;SDS011;3098;42.678;23.364;2022-10-16T07:54:31;11.73;;;4.88;;
6133;SDS011;3098;42.678;23.364;2022-10-16T07:57:00;6.22;;;3.38;;
6133;SDS011;3098;42.678;23.364;2022-10-16T07:59:28;6.20;;;3.28;;
6133;SDS011;3098;42.678;23.364;2022-10-16T08:01:57;8.02;;;3.45;;
6133;SDS011;3098;42.678;23.364;2022-10-16T08:04:24;7.03;;;3.30;;
6133;SDS011;3098;42.678;23.364;2022-10-16T08:06:52;4.40;;;3.05;;
6133;SDS011;3098;42.678;23.364;2022-10-16T08:09:20;6.93;;;3.20;;
6133;SDS011;3098;42.678;23.364;2022-10-16T08:11:48;7.38;;;3.15;;
6133;SDS011;3098;42.678;23.364;2022-10-16T08:14:19;5.03;;;3.40;;
6133;SDS011;3098;42.678;23.364;2022-10-16T08:16:47;9.40;;;3.28;;
6133;SDS011;3098;42.678;23.364;2022-10-16T08:19:14;9.95;;;3.58;;
6133;SDS011;3098;42.678;23.364;2022-10-16T08:21:42;8.18;;;3.65;;
6133;SDS011;3098;42.678;23.364;2022-10-16T08:24:15;6.95;;;3.63;;
6133;SDS011;3098;42.678;23.364;2022-10-16T08:26:43;5.70;;;3.17;;
6133;SDS011;3098;42.678;23.364;2022-10-16T08:29:13;4.80;;;3.22;;
6133;SDS011;3098;42.678;23.364;2022-10-16T08:31:43;6.45;;;3.25;;
6133;SDS011;3098;42.678;23.364;2022-10-16T08:34:10;5.63;;;3.42;;
6133;SDS011;3098;42.678;23.364;2022-10-16T08:36:38;5.03;;;2.70;;
6133;SDS011;3098;42.678;23.364;2022-10-16T08:39:05;6.55;;;3.03;;
6133;SDS011;3098;42.678;23.364;2022-10-16T08:41:39;6.07;;;3.28;;
6133;SDS011;3098;42.678;23.364;2022-10-16T08:47:26;4.60;;;2.55;;
6133;SDS011;3098;42.678;23.364;2022-10-16T08:50:11;7.03;;;2.90;;
6133;SDS011;3098;42.678;23.364;2022-10-16T08:52:44;3.58;;;2.47;;
6133;SDS011;3098;42.678;23.364;2022-10-16T08:55:29;4.90;;;2.60;;
6133;SDS011;3098;42.678;23.364;2022-10-16T08:58:00;4.47;;;2.47;;
6133;SDS011;3098;42.678;23.364;2022-10-16T09:00:28;4.43;;;2.50;;
6133;SDS011;3098;42.678;23.364;2022-10-16T09:03:03;4.88;;;2.75;;
6133;SDS011;3098;42.678;23.364;2022-10-16T09:05:43;2.97;;;2.03;;
6133;SDS011;3098;42.678;23.364;2022-10-16T09:08:20;4.25;;;2.60;;
6133;SDS011;3098;42.678;23.364;2022-10-16T09:10:56;5.40;;;3.67;;
6133;SDS011;3098;42.678;23.364;2022-10-16T09:13:29;5.57;;;3.28;;
6133;SDS011;3098;42.678;23.364;2022-10-16T09:16:09;3.70;;;2.50;;
6133;SDS011;3098;42.678;23.364;2022-10-16T09:18:45;3.65;;;2.30;;
6133;SDS011;3098;42.678;23.364;2022-10-16T09:21:19;4.70;;;2.03;;
6133;SDS011;3098;42.678;23.364;2022-10-16T09:23:51;4.57;;;2.28;;
6133;SDS011;3098;42.678;23.364;2022-10-16T09:26:18;3.13;;;2.00;;
6133;SDS011;3098;42.678;23.364;2022-10-16T09:28:47;4.88;;;2.17;;
6133;SDS011;3098;42.678;23.364;2022-10-16T09:31:18;3.35;;;2.55;;
6133;SDS011;3098;42.678;23.364;2022-10-16T09:33:50;3.50;;;2.20;;
6133;SDS011;3098;42.678;23.364;2022-10-16T09:36:21;2.65;;;1.98;;
6133;SDS011;3098;42.678;23.364;2022-10-16T09:39:01;5.28;;;2.67;;
6133;SDS011;3098;42.678;23.364;2022-10-16T09:41:33;2.58;;;2.03;;
6133;SDS011;3098;42.678;23.364;2022-10-16T09:44:03;5.65;;;2.55;;
6133;SDS011;3098;42.678;23.364;2022-10-16T09:46:34;6.15;;;2.13;;
6133;SDS011;3098;42.678;23.364;2022-10-16T09:49:16;1.77;;;1.63;;
6133;SDS011;3098;42.678;23.364;2022-10-16T09:51:48;3.50;;;2.30;;
6133;SDS011;3098;42.678;23.364;2022-10-16T09:54:19;3.85;;;2.42;;
6133;SDS011;3098;42.678;23.364;2022-10-16T09:56:49;7.82;;;2.70;;
6133;SDS011;3098;42.678;23.364;2022-10-16T09:59:21;7.85;;;2.28;;
6133;SDS011;3098;42.678;23.364;2022-10-16T10:01:52;9.20;;;2.28;;
6133;SDS011;3098;42.678;23.364;2022-10-16T10:04:36;3.50;;;2.25;;
6133;SDS011;3098;42.678;23.364;2022-10-16T10:07:06;2.53;;;2.00;;
6133;SDS011;3098;42.678;23.364;2022-10-16T10:09:43;3.35;;;2.03;;
6133;SDS011;3098;42.678;23.364;2022-10-16T10:12:20;1.50;;;1.40;;
6133;SDS011;3098;42.678;23.364;2022-10-16T10:14:49;2.63;;;1.75;;
6133;SDS011;3098;42.678;23.364;2022-10-16T10:17:19;6.38;;;2.58;;
6133;SDS011;3098;42.678;23.364;2022-10-16T10:19:49;3.55;;;2.35;;
6133;SDS011;3098;42.678;23.364;2022-10-16T10:22:27;3.83;;;2.50;;
6133;SDS011;3098;42.678;23.364;2022-10-16T10:25:12;4.35;;;2.47;;
6133;SDS011;3098;42.678;23.364;2022-10-16T10:27:49;5.28;;;2.50;;
6133;SDS011;3098;42.678;23.364;2022-10-16T10:30:37;3.67;;;2.00;;
6133;SDS011;3098;42.678;23.364;2022-10-16T10:33:12;2.67;;;2.10;;
6133;SDS011;3098;42.678;23.364;2022-10-16T10:35:55;2.88;;;1.98;;
6133;SDS011;3098;42.678;23.364;2022-10-16T10:38:31;3.05;;;2.10;;
6133;SDS011;3098;42.678;23.364;2022-10-16T10:41:10;3.42;;;2.17;;
6133;SDS011;3098;42.678;23.364;2022-10-16T10:43:53;3.25;;;2.08;;
6133;SDS011;3098;42.678;23.364;2022-10-16T10:46:31;4.15;;;2.38;;
6133;SDS011;3098;42.678;23.364;2022-10-16T10:49:05;3.78;;;2.00;;
6133;SDS011;3098;42.678;23.364;2022-10-16T10:51:48;4.45;;;1.95;;
6133;SDS011;3098;42.678;23.364;2022-10-16T10:54:24;3.50;;;2.10;;
6133;SDS011;3098;42.678;23.364;2022-10-16T10:57:03;3.10;;;2.10;;
6133;SDS011;3098;42.678;23.364;2022-10-16T10:59:58;4.78;;;2.90;;
6133;SDS011;3098;42.678;23.364;2022-10-16T11:02:36;4.78;;;2.53;;
6133;SDS011;3098;42.678;23.364;2022-10-16T11:05:14;3.00;;;2.15;;
6133;SDS011;3098;42.678;23.364;2022-10-16T11:08:06;2.75;;;1.83;;
6133;SDS011;3098;42.678;23.364;2022-10-16T11:10:45;3.83;;;2.25;;
6133;SDS011;3098;42.678;23.364;2022-10-16T11:13:21;3.25;;;2.20;;
6133;SDS011;3098;42.678;23.364;2022-10-16T11:16:08;3.35;;;2.10;;
6133;SDS011;3098;42.678;23.364;2022-10-16T11:18:45;5.45;;;1.98;;
6133;SDS011;3098;42.678;23.364;2022-10-16T11:21:17;5.10;;;2.67;;
6133;SDS011;3098;42.678;23.364;2022-10-16T11:23:51;4.75;;;1.95;;
6133;SDS011;3098;42.678;23.364;2022-10-16T11:26:26;3.92;;;2.10;;
6133;SDS011;3098;42.678;23.364;2022-10-16T11:29:00;4.35;;;2.28;;
6133;SDS011;3098;42.678;23.364;2022-10-16T11:31:32;3.53;;;2.30;;
6133;SDS011;3098;42.678;23.364;2022-10-16T11:34:06;2.95;;;2.03;;
6133;SDS011;3098;42.678;23.364;2022-10-16T11:36:43;4.32;;;2.35;;
6133;SDS011;3098;42.678;23.364;2022-10-16T11:39:18;2.65;;;1.75;;
6133;SDS011;3098;42.678;23.364;2022-10-16T11:41:47;6.10;;;2.13;;
6133;SDS011;3098;42.678;23.364;2022-10-16T11:44:20;2.67;;;1.80;;
6133;SDS011;3098;42.678;23.364;2022-10-16T11:47:23;4.07;;;2.20;;
6133;SDS011;3098;42.678;23.364;2022-10-16T11:49:56;2.78;;;2.13;;
6133;SDS011;3098;42.678;23.364;2022-10-16T11:52:30;3.85;;;2.20;;
6133;SDS011;3098;42.678;23.364;2022-10-16T11:55:15;2.42;;;1.80;;
6133;SDS011;3098;42.678;23.364;2022-10-16T11:57:48;4.00;;;1.90;;
6133;SDS011;3098;42.678;23.364;2022-10-16T12:00:20;2.53;;;1.73;;
6133;SDS011;3098;42.678;23.364;2022-10-16T12:02:53;4.40;;;1.85;;
6133;SDS011;3098;42.678;23.364;2022-10-16T12:05:29;2.83;;;2.05;;
6133;SDS011;3098;42.678;23.364;2022-10-16T12:08:11;3.70;;;1.88;;
6133;SDS011;3098;42.678;23.364;2022-10-16T12:10:43;2.33;;;1.67;;
6133;SDS011;3098;42.678;23.364;2022-10-16T12:13:28;2.88;;;2.08;;
6133;SDS011;3098;42.678;23.364;2022-10-16T12:16:08;4.10;;;1.90;;
6133;SDS011;3098;42.678;23.364;2022-10-16T12:18:49;2.92;;;1.77;;
6133;SDS011;3098;42.678;23.364;2022-10-16T12:21:20;3.38;;;2.03;;
6133;SDS011;3098;42.678;23.364;2022-10-16T12:23:58;2.50;;;1.88;;
6133;SDS011;3098;42.678;23.364;2022-10-16T12:26:31;4.32;;;2.25;;
6133;SDS011;3098;42.678;23.364;2022-10-16T12:29:14;3.42;;;2.17;;
6133;SDS011;3098;42.678;23.364;2022-10-16T12:31:55;2.30;;;1.75;;
6133;SDS011;3098;42.678;23.364;2022-10-16T12:34:23;2.30;;;1.55;;
6133;SDS011;3098;42.678;23.364;2022-10-16T12:37:07;5.35;;;2.15;;
6133;SDS011;3098;42.678;23.364;2022-10-16T12:39:38;3.35;;;2.03;;
6133;SDS011;3098;42.678;23.364;2022-10-16T12:42:21;3.92;;;2.55;;
6133;SDS011;3098;42.678;23.364;2022-10-16T12:44:50;2.72;;;1.73;;
6133;SDS011;3098;42.678;23.364;2022-10-16T12:47:21;6.72;;;1.65;;
6133;SDS011;3098;42.678;23.364;2022-10-16T12:49:51;7.28;;;2.65;;
6133;SDS011;3098;42.678;23.364;2022-10-16T12:52:25;3.92;;;1.77;;
6133;SDS011;3098;42.678;23.364;2022-10-16T12:54:55;2.25;;;1.75;;
6133;SDS011;3098;42.678;23.364;2022-10-16T12:57:30;4.07;;;1.92;;
6133;SDS011;3098;42.678;23.364;2022-10-16T13:00:12;8.10;;;1.70;;
6133;SDS011;3098;42.678;23.364;2022-10-16T13:03:04;4.25;;;1.92;;
6133;SDS011;3098;42.678;23.364;2022-10-16T13:05:58;4.00;;;1.90;;
6133;SDS011;3098;42.678;23.364;2022-10-16T13:08:40;2.85;;;1.88;;
6133;SDS011;3098;42.678;23.364;2022-10-16T13:11:23;5.95;;;1.55;;
6133;SDS011;3098;42.678;23.364;2022-10-16T13:14:01;2.47;;;1.48;;
6133;SDS011;3098;42.678;23.364;2022-10-16T13:16:46;3.15;;;1.73;;
6133;SDS011;3098;42.678;23.364;2022-10-16T13:19:26;2.50;;;1.60;;
6133;SDS011;3098;42.678;23.364;2022-10-16T13:22:05;1.77;;;1.33;;
6133;SDS011;3098;42.678;23.364;2022-10-16T13:24:49;2.22;;;1.60;;
6133;SDS011;3098;42.678;23.364;2022-10-16T13:27:32;2.60;;;1.55;;
6133;SDS011;3098;42.678;23.364;2022-10-16T13:30:29;3.78;;;1.70;;
6133;SDS011;3098;42.678;23.364;2022-10-16T13:33:13;1.95;;;1.60;;
6133;SDS011;3098;42.678;23.364;2022-10-16T13:35:48;3.00;;;1.88;;
6133;SDS011;3098;42.678;23.364;2022-10-16T13:38:17;3.90;;;1.95;;
6133;SDS011;3098;42.678;23.364;2022-10-16T13:40:51;4.32;;;2.00;;
6133;SDS011;3098;42.678;23.364;2022-10-16T13:43:23;1.95;;;1.65;;
6133;SDS011;3098;42.678;23.364;2022-10-16T13:45:57;3.17;;;1.70;;
6133;SDS011;3098;42.678;23.364;2022-10-16T13:48:27;2.70;;;2.15;;
6133;SDS011;3098;42.678;23.364;2022-10-16T13:51:00;2.60;;;1.67;;
6133;SDS011;3098;42.678;23.364;2022-10-16T13:53:30;2.70;;;1.65;;
6133;SDS011;3098;42.678;23.364;2022-10-16T13:55:58;3.60;;;2.00;;
6133;SDS011;3098;42.678;23.364;2022-10-16T13:58:26;3.67;;;2.08;;
6133;SDS011;3098;42.678;23.364;2022-10-16T14:00:56;4.15;;;1.73;;
6133;SDS011;3098;42.678;23.364;2022-10-16T14:03:30;3.17;;;2.00;;
6133;SDS011;3098;42.678;23.364;2022-10-16T14:06:00;2.85;;;1.80;;
6133;SDS011;3098;42.678;23.364;2022-10-16T14:08:31;4.63;;;1.80;;
6133;SDS011;3098;42.678;23.364;2022-10-16T14:10:59;2.30;;;1.48;;
6133;SDS011;3098;42.678;23.364;2022-10-16T14:13:29;3.38;;;1.85;;
6133;SDS011;3098;42.678;23.364;2022-10-16T14:16:01;3.40;;;2.10;;
6133;SDS011;3098;42.678;23.364;2022-10-16T14:18:34;2.13;;;1.40;;
6133;SDS011;3098;42.678;23.364;2022-10-16T14:21:05;4.35;;;2.20;;
6133;SDS011;3098;42.678;23.364;2022-10-16T14:23:35;6.05;;;1.80;;
6133;SDS011;3098;42.678;23.364;2022-10-16T14:26:14;2.53;;;1.55;;
6133;SDS011;3098;42.678;23.364;2022-10-16T14:28:44;3.53;;;1.67;;
6133;SDS011;3098;42.678;23.364;2022-10-16T14:34:01;4.75;;;2.03;;
6133;SDS011;3098;42.678;23.364;2022-10-16T14:36:29;2.10;;;1.50;;
6133;SDS011;3098;42.678;23.364;2022-10-16T14:39:02;3.53;;;1.95;;
6133;SDS011;3098;42.678;23.364;2022-10-16T14:41:31;2.45;;;1.42;;
6133;SDS011;3098;42.678;23.364;2022-10-16T14:44:09;2.50;;;1.75;;
6133;SDS011;3098;42.678;23.364;2022-10-16T14:46:40;3.80;;;1.85;;
6133;SDS011;3098;42.678;23.364;2022-10-16T14:49:13;7.50;;;1.98;;
6133;SDS011;3098;42.678;23.364;2022-10-16T14:51:45;2.17;;;1.70;;
6133;SDS011;3098;42.678;23.364;2022-10-16T14:54:13;2.80;;;1.50;;
6133;SDS011;3098;42.678;23.364;2022-10-16T14:56:46;2.28;;;1.85;;
6133;SDS011;3098;42.678;23.364;2022-10-16T15:02:25;1.80;;;1.50;;
6133;SDS011;3098;42.678;23.364;2022-10-16T15:04:56;2.63;;;1.25;;
6133;SDS011;3098;42.678;23.364;2022-10-16T15:07:31;3.47;;;1.60;;
6133;SDS011;3098;42.678;23.364;2022-10-16T15:10:03;3.25;;;2.15;;
6133;SDS011;3098;42.678;23.364;2022-10-16T15:12:34;2.72;;;1.40;;
6133;SDS011;3098;42.678;23.364;2022-10-16T15:18:06;2.50;;;1.77;;
6133;SDS011;3098;42.678;23.364;2022-10-16T15:20:47;2.88;;;1.75;;
6133;SDS011;3098;42.678;23.364;2022-10-16T15:23:25;3.83;;;2.13;;
6133;SDS011;3098;42.678;23.364;2022-10-16T15:25:59;4.78;;;1.90;;
6133;SDS011;3098;42.678;23.364;2022-10-16T15:28:36;3.30;;;1.90;;
6133;SDS011;3098;42.678;23.364;2022-10-16T15:31:18;4.03;;;2.50;;
6133;SDS011;3098;42.678;23.364;2022-10-16T15:33:54;4.70;;;1.85;;
6133;SDS011;3098;42.678;23.364;2022-10-16T15:36:29;8.40;;;2.10;;
6133;SDS011;3098;42.678;23.364;2022-10-16T15:39:01;4.97;;;1.92;;